Time;durP1;ratioP1;P1;durP2;ratioP2;P2;SDS_P1;SDS_P2;PMS_P1;PMS_P2;Temp;Humidity;BMP_temperature;BMP_pressure;BME280_temperature;BME280_humidity;BME280_pressure;Samples;Min_cycle;Max_cycle;Signal;HPM_P1;HPM_P2
2022/11/30 00:01:55;;;;;;;74.68;36.60;;;8.20;85.60;;;;;;5053357;28;20236;-72
2022/11/30 00:04:23;;;;;;;61.45;31.95;;;8.20;85.60;;;;;;5052236;28;20204;-71
2022/11/30 00:06:55;;;;;;;123.38;53.58;;;8.10;85.60;;;;;;5052756;28;20685;-71
2022/11/30 00:09:23;;;;;;;75.90;39.25;;;8.10;85.80;;;;;;5051814;28;20207;-72
2022/11/30 00:11:53;;;;;;;52.90;27.17;;;8.10;85.90;;;;;;5052010;28;20235;-72
2022/11/30 00:14:21;;;;;;;50.20;26.98;;;8.20;85.90;;;;;;5054273;28;20522;-72
2022/11/30 00:16:49;;;;;;;47.95;25.58;;;8.20;85.90;;;;;;5053250;28;20601;-72
2022/11/30 00:19:17;;;;;;;44.35;25.95;;;8.20;86.00;;;;;;5055091;28;20208;-72
2022/11/30 00:21:45;;;;;;;53.67;29.23;;;8.20;86.00;;;;;;5059936;28;20268;-72
2022/11/30 00:24:13;;;;;;;43.78;23.65;;;8.30;85.90;;;;;;5051123;28;21023;-69
2022/11/30 00:26:41;;;;;;;49.33;24.15;;;8.20;85.80;;;;;;5056323;28;21022;-70
2022/11/30 00:29:11;;;;;;;55.67;30.00;;;8.20;85.70;;;;;;5058144;28;20184;-73
2022/11/30 00:31:39;;;;;;;49.70;27.75;;;8.20;85.80;;;;;;5054498;28;20231;-71
2022/11/30 00:34:07;;;;;;;47.95;27.40;;;8.10;85.70;;;;;;5051308;28;20204;-73
2022/11/30 00:36:35;;;;;;;60.20;35.43;;;8.10;85.90;;;;;;5056085;28;20219;-72
2022/11/30 00:39:03;;;;;;;51.05;26.98;;;8.10;86.00;;;;;;5054707;28;20452;-72
2022/11/30 00:41:31;;;;;;;41.60;24.15;;;8.10;86.10;;;;;;5051976;28;20223;-72
2022/11/30 00:43:59;;;;;;;47.20;23.77;;;8.20;86.10;;;;;;5056614;28;20203;-72
2022/11/30 00:46:28;;;;;;;44.85;22.48;;;8.20;86.00;;;;;;5051850;28;20459;-72
2022/11/30 00:48:56;;;;;;;53.13;27.60;;;8.20;85.90;;;;;;5054266;28;20215;-70
2022/11/30 00:51:24;;;;;;;50.35;26.63;;;8.20;85.90;;;;;;5053578;28;20196;-72
2022/11/30 00:53:52;;;;;;;77.65;39.40;;;8.20;86.00;;;;;;5055603;28;20211;-70
2022/11/30 00:56:20;;;;;;;65.53;35.50;;;8.20;86.10;;;;;;5054148;28;20227;-72
2022/11/30 00:58:51;;;;;;;68.28;36.90;;;8.20;86.10;;;;;;5051079;28;20459;-72
2022/11/30 01:01:19;;;;;;;54.75;29.00;;;8.20;86.00;;;;;;5054189;28;20273;-72
2022/11/30 01:03:48;;;;;;;48.63;25.57;;;8.20;85.90;;;;;;5056786;28;20208;-73
2022/11/30 01:06:16;;;;;;;53.10;27.85;;;8.20;86.00;;;;;;5055415;28;20520;-71
2022/11/30 01:08:44;;;;;;;53.70;27.65;;;8.30;86.20;;;;;;5060539;28;20214;-71
2022/11/30 01:11:15;;;;;;;51.33;29.85;;;8.30;86.20;;;;;;5058116;28;20234;-72
2022/11/30 01:13:43;;;;;;;43.20;24.73;;;8.30;86.20;;;;;;5053797;28;20261;-73
2022/11/30 01:16:14;;;;;;;45.38;25.90;;;8.30;86.10;;;;;;5057393;28;20747;-72
2022/11/30 01:18:43;;;;;;;44.07;23.00;;;8.40;86.10;;;;;;5057993;28;20208;-71
2022/11/30 01:21:15;;;;;;;41.27;23.07;;;8.40;86.00;;;;;;5073544;28;21175;-71
2022/11/30 01:23:43;;;;;;;35.35;19.95;;;8.40;86.10;;;;;;5059566;28;20483;-72
2022/11/30 01:26:11;;;;;;;45.25;26.00;;;8.40;86.10;;;;;;5054585;28;20231;-72
2022/11/30 01:28:40;;;;;;;42.47;24.03;;;8.40;86.10;;;;;;5056696;28;20207;-72
2022/11/30 01:31:10;;;;;;;46.97;23.70;;;8.50;86.00;;;;;;5052851;28;20470;-71
2022/11/30 01:33:39;;;;;;;42.25;24.52;;;8.50;86.00;;;;;;5054611;28;20237;-71
2022/11/30 01:36:11;;;;;;;33.45;18.65;;;8.50;86.00;;;;;;5056635;28;20204;-72
2022/11/30 01:38:42;;;;;;;35.50;18.83;;;8.50;86.00;;;;;;5054330;28;20249;-73
2022/11/30 01:41:12;;;;;;;53.42;29.15;;;8.50;85.90;;;;;;5056597;28;20209;-73
2022/11/30 01:43:42;;;;;;;48.90;25.27;;;8.50;85.90;;;;;;5054839;28;20605;-72
2022/11/30 01:46:34;;;;;;;48.20;23.25;;;8.50;85.80;;;;;;5054994;28;20196;-72
2022/11/30 01:49:10;;;;;;;45.50;23.48;;;8.50;85.90;;;;;;5051472;28;20670;-73
2022/11/30 01:51:40;;;;;;;44.07;22.57;;;8.50;85.80;;;;;;5053141;28;20206;-72
2022/11/30 01:54:12;;;;;;;51.03;27.80;;;8.50;85.80;;;;;;5055884;28;20462;-72
2022/11/30 01:56:44;;;;;;;65.68;35.35;;;8.50;85.80;;;;;;5055260;28;20241;-72
2022/11/30 01:59:13;;;;;;;60.45;33.70;;;8.50;85.70;;;;;;5055555;28;20192;-71
2022/11/30 02:01:41;;;;;;;59.58;33.15;;;8.50;85.70;;;;;;5054949;28;20289;-73
2022/11/30 02:04:14;;;;;;;47.67;26.25;;;8.50;85.70;;;;;;5055412;28;20197;-72
2022/11/30 02:06:43;;;;;;;36.55;20.27;;;8.50;85.80;;;;;;5055129;28;20206;-70
2022/11/30 02:09:14;;;;;;;34.85;20.05;;;8.50;85.70;;;;;;5054872;28;20527;-70
2022/11/30 02:11:42;;;;;;;36.30;19.60;;;8.50;85.80;;;;;;5053697;28;20791;-70
2022/11/30 02:14:23;;;;;;;45.75;23.85;;;8.50;85.80;;;;;;5054944;28;20454;-71
2022/11/30 02:17:01;;;;;;;39.58;22.70;;;8.50;85.80;;;;;;5057211;28;20242;-71
2022/11/30 02:19:58;;;;;;;43.83;24.60;;;8.50;85.70;;;;;;5056081;28;20399;-70
2022/11/30 02:22:36;;;;;;;46.87;24.63;;;8.50;85.60;;;;;;5046360;28;20295;-71
2022/11/30 02:25:14;;;;;;;48.83;26.70;;;8.50;85.60;;;;;;5057973;28;20477;-71
2022/11/30 02:27:56;;;;;;;64.28;31.45;;;8.40;85.70;;;;;;5053188;28;20199;-70
2022/11/30 02:30:26;;;;;;;52.40;28.40;;;8.40;85.70;;;;;;5060455;28;20203;-70
2022/11/30 02:32:58;;;;;;;49.92;25.05;;;8.40;85.60;;;;;;5058703;28;20494;-69
2022/11/30 02:35:30;;;;;;;48.92;26.00;;;8.40;85.70;;;;;;5057942;28;20242;-75
2022/11/30 02:37:59;;;;;;;44.72;23.73;;;8.40;85.70;;;;;;5056675;28;20867;-71
2022/11/30 02:40:27;;;;;;;42.45;22.55;;;8.50;85.80;;;;;;5058876;28;20257;-74
2022/11/30 02:42:59;;;;;;;37.33;21.13;;;8.50;85.80;;;;;;5055681;28;20225;-72
2022/11/30 02:45:33;;;;;;;38.55;20.75;;;8.50;85.80;;;;;;5059759;28;20673;-71
2022/11/30 02:48:07;;;;;;;36.08;21.10;;;8.50;85.80;;;;;;5058689;28;20196;-72
2022/11/30 02:50:39;;;;;;;43.72;23.02;;;8.50;85.70;;;;;;5071861;28;20215;-69
2022/11/30 02:53:08;;;;;;;36.88;20.73;;;8.50;85.70;;;;;;5061000;28;20220;-72
2022/11/30 02:55:36;;;;;;;40.23;22.83;;;8.50;85.70;;;;;;5059486;28;20223;-71
2022/11/30 02:58:04;;;;;;;53.17;24.30;;;8.50;85.70;;;;;;5059233;28;20461;-71
2022/11/30 03:00:34;;;;;;;43.67;23.58;;;8.60;85.60;;;;;;5057239;28;20532;-71
2022/11/30 03:03:02;;;;;;;42.90;21.65;;;8.60;85.60;;;;;;5058702;28;20243;-73
2022/11/30 03:05:30;;;;;;;42.53;21.08;;;8.50;85.60;;;;;;5059229;28;20307;-73
2022/11/30 03:07:58;;;;;;;47.80;20.35;;;8.60;85.60;;;;;;5058373;28;20204;-71
2022/11/30 03:10:26;;;;;;;42.20;19.70;;;8.60;85.50;;;;;;5055833;28;20333;-72
2022/11/30 03:12:57;;;;;;;43.43;21.60;;;8.50;85.50;;;;;;5061193;28;20220;-72
2022/11/30 03:15:25;;;;;;;41.50;21.13;;;8.50;85.50;;;;;;5059418;28;20966;-72
2022/11/30 03:17:55;;;;;;;35.80;17.92;;;8.50;85.60;;;;;;5056564;28;20211;-72
2022/11/30 03:20:23;;;;;;;37.50;20.58;;;8.50;85.70;;;;;;5057584;28;20200;-72
2022/11/30 03:22:51;;;;;;;39.45;19.60;;;8.50;85.60;;;;;;5058666;28;20342;-72
2022/11/30 03:25:19;;;;;;;43.90;21.80;;;8.50;85.50;;;;;;5055293;28;20218;-72
2022/11/30 03:27:47;;;;;;;37.67;19.52;;;8.50;85.30;;;;;;5057044;28;20447;-73
2022/11/30 03:30:15;;;;;;;37.63;21.73;;;8.40;85.40;;;;;;5059148;28;20208;-71
2022/11/30 03:32:44;;;;;;;39.08;20.73;;;8.40;85.50;;;;;;5054823;28;20229;-72
2022/11/30 03:35:13;;;;;;;44.05;21.10;;;8.40;85.60;;;;;;5057324;28;20529;-72
2022/11/30 03:37:41;;;;;;;36.22;20.60;;;8.40;85.70;;;;;;5060125;28;20211;-72
2022/11/30 03:40:11;;;;;;;35.43;19.17;;;8.40;85.70;;;;;;5060019;28;20204;-71
2022/11/30 03:42:39;;;;;;;37.63;20.60;;;8.40;85.70;;;;;;5056626;28;20486;-73
2022/11/30 03:45:07;;;;;;;39.55;20.02;;;8.50;85.70;;;;;;5054470;28;20465;-72
2022/11/30 03:47:36;;;;;;;40.13;19.30;;;8.50;85.70;;;;;;5057811;28;20798;-72
2022/11/30 03:50:05;;;;;;;36.25;19.73;;;8.50;85.60;;;;;;5061775;28;20460;-72
2022/11/30 03:52:34;;;;;;;38.20;18.77;;;8.50;85.50;;;;;;5057407;28;20213;-72
2022/11/30 03:55:03;;;;;;;42.42;20.70;;;8.50;85.60;;;;;;5055136;28;20208;-72
2022/11/30 03:57:31;;;;;;;38.38;19.90;;;8.50;85.70;;;;;;5057924;28;20231;-72
2022/11/30 03:59:58;;;;;;;38.83;20.25;;;8.50;85.60;;;;;;5057649;28;20196;-72
2022/11/30 04:02:26;;;;;;;34.00;18.35;;;8.50;85.60;;;;;;5057001;28;20934;-72
2022/11/30 04:04:55;;;;;;;43.65;20.60;;;8.50;85.50;;;;;;5056540;28;20207;-72
2022/11/30 04:07:23;;;;;;;39.58;18.85;;;8.40;85.50;;;;;;5060967;28;20219;-73
2022/11/30 04:09:52;;;;;;;42.97;20.38;;;8.40;85.50;;;;;;5056627;28;20212;-70
2022/11/30 04:12:20;;;;;;;46.90;21.42;;;8.40;85.60;;;;;;5056042;28;20212;-72
2022/11/30 04:14:48;;;;;;;46.70;20.75;;;8.40;85.50;;;;;;5057493;28;20210;-72
2022/11/30 04:17:16;;;;;;;40.17;19.85;;;8.40;85.50;;;;;;5057510;28;20204;-72
2022/11/30 04:19:44;;;;;;;45.17;22.17;;;8.30;85.50;;;;;;5055133;28;20208;-72
2022/11/30 04:22:12;;;;;;;43.40;20.65;;;8.30;85.50;;;;;;5053281;28;20716;-70
2022/11/30 04:24:40;;;;;;;40.83;20.80;;;8.30;85.50;;;;;;5057710;28;20623;-72
2022/11/30 04:27:09;;;;;;;42.88;22.77;;;8.30;85.60;;;;;;5058960;28;20199;-70
2022/11/30 04:29:37;;;;;;;42.75;22.77;;;8.30;85.50;;;;;;5058030;28;20204;-71
2022/11/30 04:32:06;;;;;;;46.45;23.17;;;8.30;85.60;;;;;;5058991;28;20219;-71
2022/11/30 04:34:34;;;;;;;45.17;21.40;;;8.30;85.70;;;;;;5055384;28;20204;-72
2022/11/30 04:37:01;;;;;;;48.28;24.17;;;8.30;85.70;;;;;;5056049;28;20208;-72
2022/11/30 04:39:32;;;;;;;46.33;22.10;;;8.30;85.70;;;;;;5056419;28;20230;-71
2022/11/30 04:42:00;;;;;;;44.22;23.02;;;8.30;85.70;;;;;;5053343;28;20277;-71
2022/11/30 04:44:29;;;;;;;53.38;24.95;;;8.30;85.80;;;;;;5056443;28;20227;-71
2022/11/30 04:46:57;;;;;;;49.53;24.35;;;8.30;85.80;;;;;;5059001;28;20291;-72
2022/11/30 04:49:25;;;;;;;58.22;25.95;;;8.30;85.70;;;;;;5056194;28;20228;-71
2022/11/30 04:51:53;;;;;;;56.15;25.48;;;8.30;85.70;;;;;;5055878;28;20307;-72
2022/11/30 04:54:21;;;;;;;59.63;26.27;;;8.30;85.60;;;;;;5054257;28;20196;-71
2022/11/30 04:56:49;;;;;;;50.72;23.38;;;8.20;85.50;;;;;;5054759;28;21207;-71
2022/11/30 04:59:17;;;;;;;54.58;25.17;;;8.20;85.60;;;;;;5057266;28;20200;-72
2022/11/30 05:01:46;;;;;;;58.33;26.25;;;8.20;85.70;;;;;;5056729;28;20789;-72
2022/11/30 05:04:14;;;;;;;65.95;26.88;;;8.10;85.80;;;;;;5056382;28;20220;-71
2022/11/30 05:06:42;;;;;;;56.85;25.10;;;8.10;85.90;;;;;;5055777;28;20231;-71
2022/11/30 05:09:10;;;;;;;68.28;26.50;;;8.20;86.00;;;;;;5057322;28;20203;-71
2022/11/30 05:11:38;;;;;;;62.90;23.80;;;8.20;86.00;;;;;;5055423;28;20215;-72
2022/11/30 05:14:06;;;;;;;62.90;26.30;;;8.20;85.90;;;;;;5057049;28;20676;-71
2022/11/30 05:16:34;;;;;;;61.83;25.63;;;8.20;85.90;;;;;;5058167;28;20204;-72
2022/11/30 05:19:04;;;;;;;59.45;26.08;;;8.20;85.80;;;;;;5054247;28;20283;-71
2022/11/30 05:21:32;;;;;;;64.90;26.37;;;8.10;85.90;;;;;;5057192;28;20859;-72
2022/11/30 05:24:00;;;;;;;88.07;27.63;;;8.20;85.90;;;;;;5056248;28;20840;-71
2022/11/30 05:26:28;;;;;;;74.85;26.83;;;8.10;85.80;;;;;;5056839;28;20216;-71
2022/11/30 05:28:55;;;;;;;92.20;29.05;;;8.10;85.90;;;;;;5056279;28;20204;-71
2022/11/30 05:31:23;;;;;;;93.10;29.35;;;8.10;86.10;;;;;;5056581;28;20212;-71
2022/11/30 05:33:52;;;;;;;100.53;28.58;;;8.10;86.20;;;;;;5055685;28;20275;-71
2022/11/30 05:36:22;;;;;;;93.38;28.90;;;8.10;86.20;;;;;;5058164;28;20772;-71
2022/11/30 05:38:50;;;;;;;90.53;29.30;;;8.10;86.10;;;;;;5054642;28;20210;-71
2022/11/30 05:41:18;;;;;;;94.88;29.23;;;8.10;86.30;;;;;;5057572;28;20204;-71
2022/11/30 05:43:46;;;;;;;133.57;35.20;;;8.10;86.30;;;;;;5053579;28;20231;-71
2022/11/30 05:46:14;;;;;;;84.50;28.80;;;8.10;86.30;;;;;;5058717;28;20208;-71
2022/11/30 05:48:42;;;;;;;111.20;29.35;;;8.10;86.30;;;;;;5052902;28;20917;-71
2022/11/30 05:51:11;;;;;;;67.13;25.70;;;8.10;86.30;;;;;;5054394;28;20200;-72
2022/11/30 05:53:41;;;;;;;79.90;25.02;;;8.10;86.40;;;;;;5058685;28;20760;-71
2022/11/30 05:56:12;;;;;;;104.75;27.27;;;8.10;86.40;;;;;;5056205;28;20253;-73
2022/11/30 05:58:41;;;;;;;79.40;24.88;;;8.10;86.30;;;;;;5056583;28;20241;-71
2022/11/30 06:01:16;;;;;;;75.80;25.65;;;8.00;86.30;;;;;;5056874;28;20207;-69
2022/11/30 06:03:44;;;;;;;114.05;29.20;;;8.00;86.50;;;;;;5051496;28;20228;-70
2022/11/30 06:06:12;;;;;;;122.43;29.15;;;8.00;86.50;;;;;;5060323;28;20204;-70
2022/11/30 06:08:42;;;;;;;108.28;28.45;;;8.00;86.50;;;;;;5061268;28;20199;-70
2022/11/30 06:11:10;;;;;;;94.82;31.30;;;8.00;86.50;;;;;;5058449;28;20274;-72
2022/11/30 06:13:39;;;;;;;126.75;30.77;;;8.00;86.50;;;;;;5059346;28;20294;-72
2022/11/30 06:16:08;;;;;;;142.63;31.40;;;8.00;86.70;;;;;;5060012;28;20228;-72
2022/11/30 06:18:37;;;;;;;111.63;27.70;;;8.00;86.50;;;;;;5059318;28;20204;-69
2022/11/30 06:21:08;;;;;;;110.45;32.05;;;8.00;86.60;;;;;;5055025;28;20204;-71
2022/11/30 06:23:36;;;;;;;129.77;30.90;;;8.00;86.60;;;;;;5054663;28;20225;-74
2022/11/30 06:26:07;;;;;;;119.80;35.50;;;7.90;86.70;;;;;;5052953;28;20254;-72
2022/11/30 06:28:35;;;;;;;138.90;36.25;;;7.90;86.70;;;;;;5059813;28;20670;-71
2022/11/30 06:31:06;;;;;;;130.00;32.10;;;7.90;86.80;;;;;;5061586;28;20192;-72
2022/11/30 06:33:35;;;;;;;163.90;36.22;;;7.90;86.80;;;;;;5058281;28;20242;-72
2022/11/30 06:36:04;;;;;;;156.90;32.85;;;7.90;86.90;;;;;;5056816;28;20319;-69
2022/11/30 06:38:32;;;;;;;163.10;43.70;;;7.90;86.80;;;;;;5057723;28;20224;-69
2022/11/30 06:41:05;;;;;;;119.33;32.07;;;7.90;86.80;;;;;;5056301;28;20200;-70
2022/11/30 06:43:35;;;;;;;161.18;36.05;;;7.90;86.90;;;;;;5053890;28;20478;-69
2022/11/30 06:46:04;;;;;;;148.07;33.13;;;7.90;87.00;;;;;;5057149;28;20196;-70
2022/11/30 06:48:33;;;;;;;105.95;30.30;;;7.90;87.10;;;;;;5055193;28;20201;-70
2022/11/30 06:51:01;;;;;;;136.88;32.67;;;7.90;87.10;;;;;;5057568;28;20208;-71
2022/11/30 06:53:29;;;;;;;131.00;32.35;;;7.90;87.00;;;;;;5057601;28;20277;-69
2022/11/30 06:55:57;;;;;;;131.02;33.08;;;7.90;87.00;;;;;;5054734;28;20243;-71
2022/11/30 06:58:25;;;;;;;132.45;32.55;;;7.90;87.10;;;;;;5052373;28;20211;-70
2022/11/30 07:00:54;;;;;;;154.07;31.65;;;7.90;87.20;;;;;;5054303;28;20213;-72
2022/11/30 07:03:22;;;;;;;167.20;35.75;;;7.90;87.20;;;;;;5052355;28;20255;-72
2022/11/30 07:05:50;;;;;;;148.40;36.78;;;7.90;87.30;;;;;;5051128;28;20207;-72
2022/11/30 07:08:18;;;;;;;119.47;38.60;;;7.90;87.30;;;;;;5072380;28;20674;-72
2022/11/30 07:10:47;;;;;;;135.40;36.47;;;7.90;87.40;;;;;;5055108;28;20207;-71
2022/11/30 07:13:17;;;;;;;98.15;33.63;;;8.00;87.40;;;;;;5055277;28;21084;-73
2022/11/30 07:15:45;;;;;;;102.43;36.38;;;8.00;87.50;;;;;;5058079;28;20208;-73
2022/11/30 07:18:14;;;;;;;106.25;35.67;;;8.00;87.50;;;;;;5057160;28;20223;-71
2022/11/30 07:20:43;;;;;;;95.60;36.17;;;8.10;87.50;;;;;;5052592;28;20258;-71
2022/11/30 07:26:09;;;;;;;107.30;38.75;;;8.10;87.40;;;;;;5056830;28;20205;-72
2022/11/30 07:28:38;;;;;;;100.22;33.70;;;8.10;87.50;;;;;;5058406;28;20553;-73
2022/11/30 07:31:14;;;;;;;103.15;35.88;;;8.10;87.60;;;;;;5058628;28;20238;-71
2022/11/30 07:33:45;;;;;;;116.25;41.83;;;8.20;87.60;;;;;;5060846;28;20231;-72
2022/11/30 07:36:13;;;;;;;117.38;38.97;;;8.20;87.40;;;;;;5056674;28;20916;-72
2022/11/30 07:38:41;;;;;;;94.18;31.92;;;8.20;87.40;;;;;;5056003;28;20209;-71
2022/11/30 07:41:09;;;;;;;97.15;34.83;;;8.20;87.40;;;;;;5056097;28;20553;-71
2022/11/30 07:43:37;;;;;;;82.53;30.73;;;8.10;87.40;;;;;;5056536;28;20217;-73
2022/11/30 07:46:06;;;;;;;89.32;32.83;;;8.10;87.30;;;;;;5059332;28;20925;-72
2022/11/30 07:48:34;;;;;;;104.55;33.72;;;8.10;87.30;;;;;;5059327;28;20200;-72
2022/11/30 07:51:05;;;;;;;119.47;35.28;;;8.10;87.30;;;;;;5058803;28;20211;-73
2022/11/30 07:53:33;;;;;;;126.28;33.58;;;8.00;87.40;;;;;;5058205;28;20602;-71
2022/11/30 07:56:05;;;;;;;129.70;35.27;;;8.00;87.50;;;;;;5016146;28;1136545;-71
2022/11/30 07:58:33;;;;;;;126.78;33.55;;;8.00;87.40;;;;;;5057986;28;20806;-72
2022/11/30 08:01:03;;;;;;;123.97;34.75;;;8.00;87.40;;;;;;5060837;28;20217;-73
2022/11/30 08:03:31;;;;;;;132.73;33.72;;;8.00;87.50;;;;;;5056262;28;20228;-71
2022/11/30 08:06:07;;;;;;;144.65;35.38;;;8.00;87.40;;;;;;5057819;28;20269;-72
2022/11/30 08:08:37;;;;;;;131.60;32.17;;;8.00;87.40;;;;;;5055957;28;20207;-72
2022/11/30 08:11:06;;;;;;;123.57;33.88;;;7.90;87.50;;;;;;5057419;28;20196;-71
2022/11/30 08:13:34;;;;;;;171.85;35.15;;;7.90;87.50;;;;;;5055671;28;20724;-72
2022/11/30 08:16:03;;;;;;;158.00;36.63;;;7.90;87.60;;;;;;5056518;28;20211;-72
2022/11/30 08:18:31;;;;;;;126.18;33.80;;;7.90;87.60;;;;;;5056488;28;20285;-72
2022/11/30 08:21:00;;;;;;;157.93;38.60;;;7.90;87.60;;;;;;5059218;28;20212;-72
2022/11/30 08:23:30;;;;;;;156.77;40.80;;;7.90;87.60;;;;;;5057126;28;20228;-69
2022/11/30 08:26:03;;;;;;;157.90;43.13;;;7.90;87.70;;;;;;5049276;28;20230;-72
2022/11/30 08:28:31;;;;;;;140.13;44.50;;;7.90;87.90;;;;;;5056457;28;20621;-69
2022/11/30 08:31:00;;;;;;;142.18;42.78;;;7.90;88.00;;;;;;5057305;28;20212;-70
2022/11/30 08:33:28;;;;;;;198.57;49.55;;;7.90;88.10;;;;;;5057080;28;20231;-68
2022/11/30 08:36:06;;;;;;;135.38;41.55;;;8.00;88.00;;;;;;5057084;28;20239;-71
2022/11/30 08:38:35;;;;;;;118.85;42.22;;;8.00;88.00;;;;;;5055202;28;20204;-72
2022/11/30 08:41:04;;;;;;;137.57;39.95;;;8.00;87.90;;;;;;5061096;28;20665;-73
2022/11/30 08:43:32;;;;;;;117.97;36.75;;;8.00;88.10;;;;;;5058766;28;20795;-71
2022/11/30 08:46:02;;;;;;;113.65;39.80;;;8.10;88.10;;;;;;5055299;28;20223;-72
2022/11/30 08:48:48;;;;;;;112.75;35.92;;;8.10;88.10;;;;;;5051749;28;20228;-72
2022/11/30 08:51:18;;;;;;;125.50;43.78;;;8.20;88.10;;;;;;5057709;28;20208;-71
2022/11/30 08:53:48;;;;;;;102.23;39.97;;;8.20;88.00;;;;;;5056157;28;20258;-73
2022/11/30 08:56:17;;;;;;;94.97;35.00;;;8.20;88.00;;;;;;5056594;28;20470;-72
2022/11/30 08:58:46;;;;;;;99.78;36.55;;;8.20;87.90;;;;;;5057812;28;20657;-71
2022/11/30 09:01:16;;;;;;;97.22;37.63;;;8.20;87.90;;;;;;5055886;28;20200;-72
2022/11/30 09:03:45;;;;;;;114.18;40.90;;;8.20;88.00;;;;;;5058069;28;20231;-72
2022/11/30 09:06:15;;;;;;;104.18;41.03;;;8.20;88.00;;;;;;5060371;28;20215;-72
2022/11/30 09:08:45;;;;;;;100.22;39.13;;;8.20;88.10;;;;;;5057880;28;20661;-72
2022/11/30 09:11:16;;;;;;;85.07;39.40;;;8.30;88.10;;;;;;5052989;28;20529;-71
2022/11/30 09:13:44;;;;;;;89.75;37.08;;;8.30;88.10;;;;;;5052947;28;20220;-70
2022/11/30 09:16:13;;;;;;;97.57;42.38;;;8.30;87.90;;;;;;5061264;28;20197;-72
2022/11/30 09:18:42;;;;;;;99.75;44.20;;;8.30;88.00;;;;;;5053638;28;20228;-69
2022/11/30 09:21:13;;;;;;;87.70;38.80;;;8.30;88.00;;;;;;5054187;28;20221;-73
2022/11/30 09:23:42;;;;;;;89.33;42.47;;;8.30;88.00;;;;;;5054420;28;20764;-71
2022/11/30 09:26:11;;;;;;;76.32;37.85;;;8.40;87.90;;;;;;5057368;28;20471;-71
2022/11/30 09:28:41;;;;;;;86.70;40.75;;;8.30;87.90;;;;;;5055119;28;20209;-70
2022/11/30 09:31:12;;;;;;;69.57;34.15;;;8.40;87.90;;;;;;5053865;28;20201;-71
2022/11/30 09:33:40;;;;;;;68.32;34.95;;;8.40;87.80;;;;;;5053758;28;20252;-71
2022/11/30 09:36:10;;;;;;;73.77;34.67;;;8.30;87.70;;;;;;5055602;28;20197;-72
2022/11/30 09:38:41;;;;;;;62.30;31.50;;;8.30;87.70;;;;;;5054863;28;20451;-69
2022/11/30 09:41:26;;;;;;;69.88;34.55;;;8.30;87.90;;;;;;5055916;28;20200;-72
2022/11/30 09:44:03;;;;;;;79.05;36.33;;;8.30;87.90;;;;;;5054267;28;20200;-70
2022/11/30 09:46:39;;;;;;;63.40;30.13;;;8.30;87.90;;;;;;5057591;28;20231;-71
2022/11/30 09:49:19;;;;;;;62.53;30.48;;;8.30;87.80;;;;;;5054894;28;20465;-72
2022/11/30 09:51:48;;;;;;;65.30;31.38;;;8.30;87.80;;;;;;5052213;28;20231;-72
2022/11/30 09:54:20;;;;;;;63.80;31.77;;;8.30;87.60;;;;;;5058084;28;20556;-72
2022/11/30 09:56:49;;;;;;;64.50;30.83;;;8.30;87.60;;;;;;5056892;28;20434;-72
2022/11/30 09:59:23;;;;;;;64.38;32.85;;;8.20;87.50;;;;;;5057085;28;20204;-72
2022/11/30 10:01:52;;;;;;;65.25;36.63;;;8.20;87.70;;;;;;5057241;28;20232;-70
2022/11/30 10:04:26;;;;;;;72.45;35.75;;;8.20;87.70;;;;;;5068677;28;20212;-72
2022/11/30 10:07:07;;;;;;;74.93;37.80;;;8.20;87.90;;;;;;5058924;28;20799;-71
2022/11/30 10:09:47;;;;;;;66.97;32.60;;;8.20;87.80;;;;;;5056980;28;20458;-72
2022/11/30 10:12:39;;;;;;;55.42;28.63;;;8.20;87.90;;;;;;5053921;28;20477;-73
2022/11/30 10:15:17;;;;;;;65.60;33.92;;;8.20;87.80;;;;;;5055867;28;20271;-72
2022/11/30 10:17:53;;;;;;;66.37;32.53;;;8.20;87.70;;;;;;5051991;28;20215;-71
2022/11/30 10:20:36;;;;;;;57.65;31.00;;;8.20;87.80;;;;;;5057945;28;20454;-72
2022/11/30 10:23:17;;;;;;;57.13;30.90;;;8.20;87.80;;;;;;5058120;28;20231;-70
2022/11/30 10:25:54;;;;;;;69.10;31.73;;;8.20;87.80;;;;;;5055219;28;20462;-72
2022/11/30 10:28:35;;;;;;;57.75;30.90;;;8.20;87.90;;;;;;5054303;28;20442;-73
2022/11/30 10:31:28;;;;;;;67.90;35.60;;;8.30;87.80;;;;;;5055697;28;20204;-71
2022/11/30 10:34:03;;;;;;;63.67;33.10;;;8.20;87.70;;;;;;5058429;28;20258;-72
2022/11/30 10:36:36;;;;;;;71.28;33.92;;;8.20;87.70;;;;;;5059823;28;20441;-72
2022/11/30 10:39:19;;;;;;;63.63;32.97;;;8.20;87.60;;;;;;5055295;28;20196;-72
2022/11/30 10:41:50;;;;;;;76.90;34.50;;;8.20;87.70;;;;;;5056146;28;20196;-70
2022/11/30 10:44:22;;;;;;;67.40;32.03;;;8.20;87.70;;;;;;5057790;28;20204;-73
2022/11/30 10:46:57;;;;;;;69.10;32.78;;;8.20;87.70;;;;;;5056342;28;20473;-73
2022/11/30 10:49:28;;;;;;;79.47;34.03;;;8.10;87.70;;;;;;5058781;28;20279;-70
2022/11/30 10:52:01;;;;;;;73.20;34.27;;;8.20;87.60;;;;;;5060222;28;20890;-72
2022/11/30 10:54:30;;;;;;;80.55;33.17;;;8.10;87.60;;;;;;5055880;28;20446;-73
2022/11/30 10:57:00;;;;;;;74.78;33.10;;;8.10;87.60;;;;;;5057093;28;20196;-70
2022/11/30 10:59:38;;;;;;;92.72;38.20;;;8.10;87.60;;;;;;5059435;28;20283;-70
2022/11/30 11:02:35;;;;;;;81.95;37.72;;;8.10;87.60;;;;;;5060830;28;20277;-72
2022/11/30 11:05:22;;;;;;;86.80;37.40;;;8.10;87.60;;;;;;5059896;28;20196;-71
2022/11/30 11:07:58;;;;;;;101.53;41.35;;;8.10;87.70;;;;;;5061431;28;20212;-70
2022/11/30 11:10:36;;;;;;;90.35;35.00;;;8.10;87.80;;;;;;5057884;28;20207;-72
2022/11/30 11:13:04;;;;;;;92.35;38.05;;;8.10;87.70;;;;;;5055745;28;20235;-71
2022/11/30 11:15:34;;;;;;;99.82;37.28;;;8.10;87.80;;;;;;5059682;28;20212;-71
2022/11/30 11:18:26;;;;;;;101.40;40.90;;;8.10;87.70;;;;;;5059939;28;20200;-70
2022/11/30 11:21:06;;;;;;;100.70;37.28;;;8.10;87.80;;;;;;5058509;28;20211;-71
2022/11/30 11:23:37;;;;;;;101.68;41.53;;;8.10;87.90;;;;;;5056417;28;20231;-71
2022/11/30 11:26:07;;;;;;;102.20;42.60;;;8.10;88.00;;;;;;5059616;28;20291;-70
2022/11/30 11:28:43;;;;;;;81.70;35.92;;;8.10;87.90;;;;;;5060986;28;20205;-72
2022/11/30 11:31:19;;;;;;;111.80;45.20;;;8.10;88.00;;;;;;5058461;28;20222;-71
2022/11/30 11:33:53;;;;;;;91.30;38.08;;;8.20;88.00;;;;;;5055683;28;20216;-72
2022/11/30 11:36:27;;;;;;;86.20;36.53;;;8.20;87.80;;;;;;5056441;28;20187;-73
2022/11/30 11:38:56;;;;;;;74.17;33.30;;;8.10;87.70;;;;;;5061436;28;20199;-72
2022/11/30 11:41:27;;;;;;;80.72;32.08;;;8.10;87.90;;;;;;5061489;28;20451;-69
2022/11/30 11:44:01;;;;;;;72.38;34.10;;;8.20;88.00;;;;;;5059349;28;20752;-74
2022/11/30 11:46:30;;;;;;;64.43;29.95;;;8.20;87.90;;;;;;5058710;28;20216;-69
2022/11/30 11:49:03;;;;;;;59.03;27.77;;;8.20;88.00;;;;;;5056165;28;20287;-70
2022/11/30 11:51:33;;;;;;;54.80;27.20;;;8.20;88.00;;;;;;5059358;28;20818;-72
2022/11/30 11:54:06;;;;;;;45.63;23.88;;;8.30;88.10;;;;;;5061162;28;20199;-71
2022/11/30 11:56:35;;;;;;;51.28;26.20;;;8.30;88.00;;;;;;5056986;28;20244;-72
2022/11/30 11:59:14;;;;;;;42.60;24.00;;;8.40;87.80;;;;;;5057815;28;20203;-73
2022/11/30 12:01:50;;;;;;;48.25;27.95;;;8.40;87.70;;;;;;5060570;28;21265;-70
2022/11/30 12:04:33;;;;;;;51.67;29.73;;;8.40;87.70;;;;;;5056248;28;20204;-71
2022/11/30 12:07:13;;;;;;;55.00;28.63;;;8.40;87.60;;;;;;5056489;28;20565;-69
2022/11/30 12:09:55;;;;;;;53.80;29.48;;;8.40;87.60;;;;;;5057638;28;20204;-69
2022/11/30 12:12:23;;;;;;;61.83;31.63;;;8.40;87.50;;;;;;5056620;28;20238;-70
2022/11/30 12:14:51;;;;;;;53.05;28.63;;;8.40;87.40;;;;;;5061033;28;20450;-72
2022/11/30 12:17:33;;;;;;;62.40;31.10;;;8.30;87.30;;;;;;5062730;28;20262;-71
2022/11/30 12:20:13;;;;;;;57.10;28.40;;;8.30;87.50;;;;;;5065022;28;20211;-70
2022/11/30 12:22:56;;;;;;;51.33;27.58;;;8.30;87.70;;;;;;5063331;28;20493;-70
2022/11/30 12:25:26;;;;;;;58.50;27.45;;;8.30;87.60;;;;;;5065486;28;20226;-68
2022/11/30 12:28:05;;;;;;;44.30;26.00;;;8.30;87.40;;;;;;5067579;28;20718;-74
2022/11/30 12:30:43;;;;;;;48.80;26.60;;;8.30;87.40;;;;;;5066206;28;20459;-72
2022/11/30 12:33:16;;;;;;;46.70;26.08;;;8.30;87.20;;;;;;5063686;28;20216;-75
2022/11/30 12:35:58;;;;;;;59.95;28.25;;;8.20;87.30;;;;;;5064637;28;20228;-72
2022/11/30 12:38:41;;;;;;;51.03;27.35;;;8.30;87.30;;;;;;5063461;28;20203;-72
2022/11/30 12:41:25;;;;;;;48.60;26.65;;;8.20;87.10;;;;;;5063361;28;20214;-72
2022/11/30 12:44:03;;;;;;;55.53;28.85;;;8.20;87.30;;;;;;5063674;28;20589;-71
2022/11/30 12:46:38;;;;;;;50.95;28.08;;;8.20;87.40;;;;;;5061525;28;20230;-70
2022/11/30 12:49:21;;;;;;;47.95;26.30;;;8.20;87.30;;;;;;5063603;28;20672;-76
2022/11/30 12:51:58;;;;;;;61.33;32.10;;;8.30;87.20;;;;;;5063388;28;20204;-69
2022/11/30 12:54:33;;;;;;;49.65;28.23;;;8.20;87.10;;;;;;5060088;28;20522;-70
2022/11/30 12:57:10;;;;;;;46.20;26.20;;;8.20;86.90;;;;;;5058308;28;20720;-73